LGPZ/PVK METAR and TAF weather

Enter ICAO airport designator
Station Type Date Time Source
LGPZ METAR 2021/05/14 07:20 UTC NOAA

LGPZ 140720Z 30004KT 9999 FEW015 SCT020 22/13 Q1015


Station Type Date Time Source
LGPZ Decoded METAR 2021/05/14 07:20 UTC NOAA

Aktion Airport , Greece (LGPZ) 38-37N 020-46E 4M
May 14, 2021 - 03:20 AM EDT / 2021.05.14 0720 UTC
Wind: from the WNW (300 degrees) at 5 MPH (4 KT):0
Visibility: greater than 7 mile(s):0
Sky conditions: partly cloudy
Temperature: 71 F (22 C)
Dew Point: 55 F (13 C)
Relative Humidity: 56%
Pressure (altimeter): 29.97 in. Hg (1015 hPa)
ob: LGPZ 140720Z 30004KT 9999 FEW015 SCT020 22/13 Q1015
cycle: 7

Station Type Date Time Source
LGPZ TAF 2021/05/14 06:12 UTC NOAA

TAF LGPZ 140500Z 1406/1506 27012KT 9999 FEW020
BECMG 1421/1423 06010KT

Example: see airport list